メインページ
METAR-TAF:

METAR-TAF

空港 :

ホルヘ・チャベス国際空港

リマ, ペルー

緯度: 12-00S, 経度: 077-07W, 海抜: 12m

現時点の気象観測

当レポートは51分前の11:03(UTC)に作成
南/南東の風 6kt
気温 16°C
湿度 94%
気圧 1013 hPa
視程10km以上
高度600ftの千切れ雲あり
高度1400ftの雲は散在している

METAR: SPJC 221103Z 16006KT 9999 BKN006 SCT014 16/15 Q1013 NOSIG RMK

時間: 06:54 (11:54 UTC)

予報

当レポートは1時間54分前の10:00(UTC)に作成
予報は22日の 10時(UTC)から 23日の 06時(UTC)まで有効
の風 6kt
視程10km以上
高度500ftの千切れ雲あり
高度1500ftの雲は散在している
22日の 08時(UTC)から 22日の 10時(UTC)まで徐々に
視程: 7000m
高度400ftの千切れ雲あり
22日の 12時(UTC)から 22日の 14時(UTC)まで一時的に
視程: 4000m
高度200ftの曇り
22日の 14時(UTC)から 22日の 16時(UTC)まで徐々に
西の風 4kt
視程10km以上
1,500メートル以下は雲なし、積乱雲なし
22日の 1900時(UTC)から
の風 12kt
視程10km以上
1,500メートル以下は雲なし、積乱雲なし

TAF: SPJC 221000Z 2210/2306 18006KT 9999 BKN005 SCT015 TX21/2219Z TN15/2211Z BECMG 2208/2210 7000 BKN004 TEMPO 2212/2214 4000 BR OVC002 BECMG 2214/2216 26004KT CAVOK FM221900 17012KT CAVOK

4,000以上の空港の気象観測と天気予報(METAR報とTAF報)

利用可能な観測所は地図上に黄色い丸と赤い丸で示す。

丸の上にカーソルを重ねると観測所名を参照できる。

次にクリックすると気象観測と天気予報を参照できる。

マップの切り替え:黒色「×」印の緑ボタンをクリックして拡大、「-」印の緑ボタンをクリックして縮小、緑色の三角印をクリックして隣りの地図に切り替え


METAR-TAF: